KCVO

Corvallis Municipal Airport

Corvallis, Oregon, USA
METAR KCVO 201556Z AUTO 32005KT 10SM CLR 15/13 A3004 RMK AO2 SLP173 T01500128
Observed Flight Rules
Aug-20 @ 15:56 UTC (27 minutes ago) Visual Flight Rules
Wind Visibility Clouds
320° at 5 knots 10 miles
  • Clear skies
Temperatures Readings
Current 15°C / 59°F
Dewpoint 13°C / 55°F
Humidity 88%
Altimeter 30.04" Hg
Pressure 1017.3 hPa
Elevation 75
METAR KCVO 201556Z AUTO 32005KT 10SM CLR 15/13 A3004 RMK AO2 SLP173 T01500128
Observed Flight Rules
Aug-20 @ 15:56 UTC
(27 minutes ago)
VFR
Wind Visibility
320° at 5 knots 10 miles
Clouds
  • Clear skies
Temperature Dewpoint
15°C / 59°F 13°C / 55°F
Humidity Altimeter Pressure
88% 30.04" Hg 1017.3 hPa